Date,TemperatureHighF,TemperatureAvgF,TemperatureLowF,DewpointHighF,DewpointAvgF,DewpointLowF,HumidityHigh,HumidityAvg,HumidityLow,PressureMaxIn,PressureMinIn,WindSpeedMaxMPH,WindSpeedAvgMPH,GustSpeedMaxMPH,PrecipitationSumIn
2013-1-5,47.9,43.4,38.4,46.0,41.7,37.2,96,93,87,30.04,29.91,6,1,0,0.22
2013-1-6,53.5,44.4,37.9,47.6,42.0,36.9,97,91,77,30.06,29.91,7,1,0,0.00
2013-1-7,54.5,45.3,38.9,51.6,43.9,37.7,97,95,85,30.13,30.04,7,2,10,0.01
2013-1-8,54.5,48.8,44.4,50.7,47.3,43.3,97,95,83,30.09,29.96,5,2,8,0.00
2013-1-9,49.2,46.5,38.5,47.9,44.0,36.7,97,91,75,30.00,29.85,8,2,13,0.22
2013-1-10,39.1,39.1,39.1,37.8,37.8,37.8,95,95,95,29.92,29.92,0,0,0,0.22
2013-1-15,35.2,35.0,34.6,33.9,33.6,33.1,95,95,94,30.25,30.25,1,1,1,0.01
2013-1-16,49.6,40.0,32.0,46.2,37.9,30.7,96,92,84,30.27,30.09,4,1,6,0.01
2013-1-17,34.5,34.5,34.5,33.2,33.2,33.2,95,95,95,30.10,30.10,0,0,0,0.01
2013-3-27,49.1,48.9,48.7,47.7,47.4,47.1,95,95,94,29.82,29.82,0,0,1,0.02
2013-3-28,60.7,53.0,49.0,54.4,50.4,47.4,97,91,78,29.92,29.81,7,2,9,0.02
2013-3-29,60.8,52.9,49.1,54.5,50.5,48.0,97,92,79,29.92,29.83,6,2,9,0.00
2013-3-30,56.2,52.1,48.9,52.5,50.2,47.6,97,93,86,29.89,29.82,5,1,7,0.02
2013-3-31,64.1,53.9,48.9,56.0,52.0,47.8,97,94,74,29.86,29.80,7,1,8,0.31
2013-4-1,59.4,52.3,46.6,54.5,49.9,45.4,97,92,81,30.00,29.85,5,1,9,0.01
2013-4-2,53.3,50.3,46.9,51.2,49.0,45.8,97,95,91,30.03,29.95,4,1,5,0.02
2013-4-3,46.9,46.6,46.3,45.8,45.5,45.2,96,96,96,29.99,29.99,0,0,0,0.00
2013-9-10,64.0,62.7,62.0,60.1,59.4,59.0,90,89,87,29.70,29.64,2,0,2,0.00
2013-9-29,65.9,63.7,61.5,63.8,62.2,60.3,97,95,92,29.86,29.81,5,3,10,0.11
2013-9-30,65.5,61.4,49.5,62.5,58.1,48.1,97,90,68,29.87,29.78,5,2,9,0.31
2013-10-21,52.6,47.3,42.2,50.1,46.0,41.1,97,95,90,29.83,29.77,4,1,6,0.00
2013-11-6,53.2,52.2,51.2,50.8,49.7,48.7,93,91,90,30.03,29.98,3,1,4,0.00
2013-11-7,62.8,53.8,45.6,56.1,51.1,44.0,96,91,79,30.03,29.95,5,2,8,0.00
2013-11-8,60.4,51.0,40.1,55.7,48.9,38.8,98,93,74,29.97,29.81,5,1,7,0.01
2013-11-9,66.0,51.3,39.9,54.8,46.1,38.8,97,84,61,29.84,29.79,4,1,5,0.01
2013-11-10,60.5,50.4,39.8,52.9,47.0,38.5,97,89,74,29.92,29.81,6,1,10,0.00
2013-11-11,63.4,53.0,44.9,53.3,48.6,43.5,96,85,66,29.99,29.87,5,1,7,0.00
2013-11-12,65.7,56.1,48.0,56.0,51.0,46.4,95,83,69,30.13,29.98,4,1,6,0.00
2013-11-13,61.0,51.1,42.7,55.8,49.5,41.6,97,94,81,30.13,29.96,5,1,5,0.01
2013-11-14,58.0,52.9,49.9,52.5,49.9,44.3,98,90,79,29.98,29.80,7,2,17,0.01
2013-11-15,57.0,51.9,45.8,48.8,45.1,41.4,87,78,64,29.80,29.61,8,4,10,0.00
2013-11-18,51.4,51.0,50.8,49.7,49.2,48.8,95,94,91,29.88,29.84,5,2,6,0.02
2013-11-19,57.3,54.5,51.1,56.5,53.6,49.7,98,97,95,29.85,29.69,6,3,11,1.25
2013-11-20,57.0,53.0,49.6,56.4,52.2,48.5,98,97,95,29.74,29.68,3,1,5,0.11
2013-11-26,63.3,52.0,40.6,49.1,45.1,38.7,94,79,52,30.05,29.84,4,1,4,0.01
2013-11-27,43.4,43.1,42.8,41.8,41.3,40.9,94,94,93,29.84,29.84,2,2,2,0.00
2013-11-28,62.6,49.0,42.1,51.9,44.7,40.4,94,86,63,29.90,29.77,3,0,4,0.00
2013-11-29,63.3,47.4,37.7,54.0,44.2,36.3,96,89,62,30.04,29.90,6,1,6,0.01